createdAt,value
2023-01-28T00:01:40.007Z,28.98
2023-01-28T00:04:07.014Z,31.45
2023-01-28T00:06:34.063Z,29.42
2023-01-28T00:09:00.735Z,31.85
2023-01-28T00:11:27.393Z,27.58
2023-01-28T00:13:54.966Z,32.30
2023-01-28T00:16:26.828Z,32.45
2023-01-28T00:18:54.279Z,31.35
2023-01-28T00:21:21.270Z,32.90
2023-01-28T00:23:52.534Z,29.05
2023-01-28T00:26:19.344Z,25.80
2023-01-28T00:28:47.102Z,32.40
2023-01-28T00:31:26.159Z,35.30
2023-01-28T00:33:54.247Z,26.65
2023-01-28T00:36:23.300Z,28.70
2023-01-28T00:38:55.497Z,30.58
2023-01-28T00:41:24.786Z,31.33
2023-01-28T00:43:52.651Z,31.27
2023-01-28T00:46:21.350Z,33.33
2023-01-28T00:48:48.496Z,36.72
2023-01-28T00:51:20.737Z,31.17
2023-01-28T00:53:48.153Z,29.73
2023-01-28T00:56:17.807Z,35.55
2023-01-28T00:58:45.731Z,32.40
2023-01-28T01:01:15.600Z,33.97
2023-01-28T01:03:42.567Z,27.58
2023-01-28T01:06:10.688Z,30.63
2023-01-28T01:08:39.991Z,28.58
2023-01-28T01:11:08.775Z,32.03
2023-01-28T01:13:36.570Z,30.60
2023-01-28T01:16:16.711Z,35.15
2023-01-28T01:18:43.929Z,26.38
2023-01-28T01:21:19.013Z,32.28
2023-01-28T01:23:46.724Z,31.67
2023-01-28T01:26:14.645Z,28.70
2023-01-28T01:28:41.775Z,32.45
2023-01-28T01:31:20.868Z,40.20
2023-01-28T01:33:49.243Z,30.23
2023-01-28T01:36:18.481Z,29.13
2023-01-28T01:38:45.808Z,30.92
2023-01-28T01:41:32.828Z,31.33
2023-01-28T01:44:04.674Z,30.05
2023-01-28T01:46:50.922Z,31.92
2023-01-28T01:49:26.633Z,34.92
2023-01-28T01:52:03.407Z,31.52
2023-01-28T01:54:32.220Z,37.35
2023-01-28T01:57:00.878Z,33.90
2023-01-28T01:59:33.519Z,27.83
2023-01-28T02:02:03.706Z,34.33
2023-01-28T02:04:35.534Z,36.58
2023-01-28T02:07:02.775Z,33.55
2023-01-28T02:09:36.832Z,33.22
2023-01-28T02:12:05.613Z,37.03
2023-01-28T02:14:35.800Z,38.00
2023-01-28T02:17:03.290Z,31.58
2023-01-28T02:19:39.578Z,36.35
2023-01-28T02:22:19.857Z,37.97
2023-01-28T02:25:04.883Z,36.47
2023-01-28T02:27:31.677Z,40.88
2023-01-28T02:30:15.839Z,38.13
2023-01-28T02:33:02.069Z,36.53
2023-01-28T02:35:37.800Z,35.92
2023-01-28T02:38:11.291Z,43.42
2023-01-28T02:41:08.900Z,35.85
2023-01-28T02:43:54.913Z,39.58
2023-01-28T02:49:14.154Z,38.28
2023-01-28T02:52:17.344Z,42.13
2023-01-28T02:55:26.442Z,34.38
2023-01-28T02:58:08.158Z,36.97
2023-01-28T03:00:45.637Z,42.85
2023-01-28T03:03:26.481Z,38.95
2023-01-28T03:06:08.673Z,36.55
2023-01-28T03:09:13.333Z,37.03
2023-01-28T03:12:06.680Z,39.10
2023-01-28T03:14:53.803Z,41.47
2023-01-28T03:17:44.929Z,37.78
2023-01-28T03:20:31.807Z,38.88
2023-01-28T03:23:24.120Z,43.88
2023-01-28T03:26:14.464Z,35.15
2023-01-28T03:29:03.408Z,42.83
2023-01-28T03:31:49.378Z,41.75
2023-01-28T03:37:01.880Z,43.22
2023-01-28T03:39:30.645Z,39.88
2023-01-28T03:42:06.709Z,40.65
2023-01-28T03:44:52.555Z,39.58
2023-01-28T03:47:21.602Z,41.63
2023-01-28T03:49:51.120Z,38.83
2023-01-28T03:52:37.222Z,41.42
2023-01-28T03:55:13.652Z,41.58
2023-01-28T03:57:41.075Z,49.10
2023-01-28T04:00:10.452Z,41.45
2023-01-28T04:02:40.072Z,44.22
2023-01-28T04:05:12.939Z,41.15
2023-01-28T04:07:40.047Z,42.40
2023-01-28T04:10:08.690Z,41.15
2023-01-28T04:12:37.800Z,40.60
2023-01-28T04:15:15.633Z,46.00
2023-01-28T04:17:46.975Z,37.72
2023-01-28T04:20:14.786Z,40.70
2023-01-28T04:22:41.679Z,43.95
2023-01-28T04:25:09.019Z,39.78
2023-01-28T04:27:35.764Z,44.53
2023-01-28T04:30:02.694Z,38.78
2023-01-28T04:32:29.431Z,42.75
2023-01-28T04:34:56.104Z,39.85
2023-01-28T04:37:22.812Z,45.50
2023-01-28T04:39:49.762Z,39.95
2023-01-28T04:42:16.474Z,42.05
2023-01-28T04:44:43.180Z,42.08
2023-01-28T04:47:10.392Z,37.08
2023-01-28T04:49:37.090Z,45.33
2023-01-28T04:52:03.937Z,37.70
2023-01-28T04:54:30.680Z,48.35
2023-01-28T04:56:57.384Z,37.70
2023-01-28T04:59:24.130Z,41.28
2023-01-28T05:01:50.978Z,43.25
2023-01-28T05:04:17.742Z,41.35
2023-01-28T05:06:44.551Z,41.65
2023-01-28T05:09:11.520Z,41.63
2023-01-28T05:11:39.364Z,44.05
2023-01-28T05:14:06.371Z,38.38
2023-01-28T05:16:34.994Z,44.88
2023-01-28T05:19:02.491Z,38.60
2023-01-28T05:21:29.241Z,41.70
2023-01-28T05:23:56.025Z,42.42
2023-01-28T05:26:22.867Z,42.63
2023-01-28T05:28:51.323Z,41.60
2023-01-28T05:31:18.065Z,37.35
2023-01-28T05:33:44.753Z,39.85
2023-01-28T05:36:11.505Z,37.47
2023-01-28T05:38:38.293Z,41.92
2023-01-28T05:41:05.168Z,41.22
2023-01-28T05:43:31.914Z,46.13
2023-01-28T05:45:58.675Z,44.70
2023-01-28T05:48:25.487Z,48.03
2023-01-28T05:50:52.201Z,41.90
2023-01-28T05:53:19.175Z,44.58
2023-01-28T05:55:56.100Z,38.47
2023-01-28T05:58:23.295Z,39.75
2023-01-28T06:00:50.034Z,40.17
2023-01-28T06:03:16.784Z,35.45
2023-01-28T06:05:43.494Z,47.30
2023-01-28T06:08:10.306Z,42.20
2023-01-28T06:10:37.084Z,43.05
2023-01-28T06:13:03.858Z,45.00
2023-01-28T06:15:30.763Z,43.38
2023-01-28T06:17:57.555Z,44.78
2023-01-28T06:20:24.326Z,46.28
2023-01-28T06:22:54.275Z,44.30
2023-01-28T06:25:20.970Z,44.88
2023-01-28T06:27:47.773Z,43.05
2023-01-28T06:30:14.828Z,44.50
2023-01-28T06:32:41.737Z,40.17
2023-01-28T06:35:08.981Z,43.92
2023-01-28T06:37:35.678Z,42.33
2023-01-28T06:40:03.595Z,45.67
2023-01-28T06:42:30.389Z,37.50
2023-01-28T06:44:57.100Z,41.55
2023-01-28T06:47:23.883Z,38.38
2023-01-28T06:49:50.690Z,40.65
2023-01-28T06:52:17.379Z,38.53
2023-01-28T06:54:44.279Z,43.90
2023-01-28T06:57:11.057Z,39.45
2023-01-28T06:59:37.783Z,43.63
2023-01-28T07:02:04.542Z,49.40
2023-01-28T07:04:31.909Z,35.35
2023-01-28T07:06:58.770Z,37.40
2023-01-28T07:09:25.455Z,39.60
2023-01-28T07:11:52.260Z,45.95
2023-01-28T07:14:19.004Z,34.33
2023-01-28T07:16:45.763Z,39.67
2023-01-28T07:19:12.577Z,44.00
2023-01-28T07:21:39.385Z,36.28
2023-01-28T07:24:06.384Z,40.72
2023-01-28T07:26:33.155Z,44.15
2023-01-28T07:29:00.347Z,37.63
2023-01-28T07:31:27.153Z,39.50
2023-01-28T07:33:54.152Z,38.22
2023-01-28T07:36:20.857Z,44.50
2023-01-28T07:38:47.551Z,43.20
2023-01-28T07:41:14.296Z,43.78
2023-01-28T07:43:41.049Z,44.42
2023-01-28T07:46:07.748Z,47.95
2023-01-28T07:48:35.872Z,49.22
2023-01-28T07:51:02.662Z,42.20
2023-01-28T07:53:29.424Z,52.17
2023-01-28T07:56:01.180Z,44.70
2023-01-28T07:58:28.600Z,43.83
2023-01-28T08:01:01.395Z,41.80
2023-01-28T08:03:28.950Z,40.20
2023-01-28T08:05:57.363Z,46.20
2023-01-28T08:08:26.626Z,43.78
2023-01-28T08:10:53.720Z,50.20
2023-01-28T08:13:20.623Z,49.90
2023-01-28T08:15:47.377Z,44.03
2023-01-28T08:18:16.004Z,47.22
2023-01-28T08:20:47.602Z,47.28
2023-01-28T08:23:21.957Z,39.95
2023-01-28T08:28:17.450Z,46.55
2023-01-28T08:30:44.731Z,46.38
2023-01-28T08:33:13.364Z,46.65
2023-01-28T08:35:40.947Z,49.00
2023-01-28T08:38:09.059Z,45.45
2023-01-28T08:40:35.936Z,44.08
2023-01-28T08:43:03.151Z,41.10
2023-01-28T08:45:30.334Z,42.78
2023-01-28T08:48:02.275Z,44.10
2023-01-28T08:50:35.239Z,52.10
2023-01-28T08:53:05.146Z,37.15
2023-01-28T08:55:33.048Z,44.65
2023-01-28T08:58:03.575Z,39.53
2023-01-28T09:00:32.490Z,41.95
2023-01-28T09:02:59.406Z,44.22
2023-01-28T09:05:26.237Z,45.50
2023-01-28T09:07:52.977Z,44.08
2023-01-28T09:10:22.504Z,41.17
2023-01-28T09:12:49.556Z,43.60
2023-01-28T09:15:17.257Z,42.22
2023-01-28T09:17:44.007Z,43.15
2023-01-28T09:20:13.073Z,46.15
2023-01-28T09:22:40.221Z,49.85
2023-01-28T09:25:07.833Z,41.55
2023-01-28T09:27:34.689Z,42.63
2023-01-28T09:30:01.403Z,38.90
2023-01-28T09:32:28.260Z,38.10
2023-01-28T09:34:55.083Z,41.75
2023-01-28T09:37:21.855Z,45.58
2023-01-28T09:39:48.556Z,48.15
2023-01-28T09:42:48.080Z,40.70
2023-01-28T09:45:40.701Z,40.50
2023-01-28T09:48:14.777Z,43.85
2023-01-28T09:50:48.985Z,42.47
2023-01-28T09:53:18.798Z,45.42
2023-01-28T09:55:54.664Z,37.75
2023-01-28T09:58:21.808Z,38.75
2023-01-28T10:00:59.133Z,41.15
2023-01-28T10:03:26.055Z,41.75
2023-01-28T10:06:19.590Z,39.75
2023-01-28T10:09:07.151Z,41.53
2023-01-28T10:11:33.855Z,38.63
2023-01-28T10:14:06.060Z,37.63
2023-01-28T10:16:54.409Z,43.78
2023-01-28T10:19:30.105Z,41.42
2023-01-28T10:22:13.174Z,37.83
2023-01-28T10:24:49.342Z,34.90
2023-01-28T10:27:22.536Z,34.40
2023-01-28T10:29:50.807Z,38.42
2023-01-28T10:32:34.923Z,40.10
2023-01-28T10:35:03.042Z,42.53
2023-01-28T10:37:33.607Z,42.10
2023-01-28T10:40:02.912Z,45.50
2023-01-28T10:42:32.911Z,38.40
2023-01-28T10:45:20.374Z,45.47
2023-01-28T10:48:03.982Z,42.55
2023-01-28T10:50:32.013Z,47.13
2023-01-28T10:53:03.949Z,44.15
2023-01-28T10:55:36.378Z,41.03
2023-01-28T10:58:04.790Z,40.85
2023-01-28T11:00:36.797Z,43.05
2023-01-28T11:03:03.907Z,42.03
2023-01-28T11:05:31.674Z,45.42
2023-01-28T11:08:15.506Z,42.55
2023-01-28T11:10:43.995Z,43.70
2023-01-28T11:13:26.838Z,43.40
2023-01-28T11:16:12.570Z,49.40
2023-01-28T11:18:46.485Z,41.08
2023-01-28T11:21:26.409Z,40.20
2023-01-28T11:24:02.636Z,37.88
2023-01-28T11:26:34.016Z,41.78
2023-01-28T11:29:01.461Z,38.75
2023-01-28T11:31:29.000Z,43.35
2023-01-28T11:34:01.407Z,38.03
2023-01-28T11:36:30.571Z,38.53
2023-01-28T11:39:16.990Z,36.55
2023-01-28T11:41:44.185Z,32.20
2023-01-28T11:44:17.840Z,35.95
2023-01-28T11:47:12.960Z,34.00
2023-01-28T11:50:01.503Z,32.65
2023-01-28T11:53:07.139Z,32.40
2023-01-28T11:55:49.109Z,36.20
2023-01-28T11:58:50.984Z,26.92
2023-01-28T12:01:42.229Z,32.92
2023-01-28T12:04:44.864Z,34.47
2023-01-28T12:07:26.581Z,31.55
2023-01-28T12:10:09.359Z,32.25
2023-01-28T12:12:58.089Z,34.00
2023-01-28T12:15:52.118Z,31.45
2023-01-28T12:18:52.013Z,31.27
2023-01-28T12:21:40.735Z,29.92
2023-01-28T12:24:27.721Z,33.28
2023-01-28T12:27:16.527Z,30.30
2023-01-28T12:29:51.131Z,30.48
2023-01-28T12:32:23.296Z,31.40
2023-01-28T12:35:02.010Z,33.08
2023-01-28T12:37:51.190Z,32.30
2023-01-28T12:40:39.574Z,29.05
2023-01-28T12:43:24.791Z,33.38
2023-01-28T12:46:00.914Z,29.73
2023-01-28T12:48:29.925Z,32.40
2023-01-28T12:51:04.838Z,30.98
2023-01-28T12:53:42.647Z,28.00
2023-01-28T12:56:19.831Z,28.08
2023-01-28T12:58:57.040Z,31.55
2023-01-28T13:01:29.697Z,31.20
2023-01-28T13:04:07.030Z,30.73
2023-01-28T13:06:40.388Z,29.10
2023-01-28T13:09:18.906Z,27.55
2023-01-28T13:11:48.174Z,26.73
2023-01-28T13:14:16.079Z,25.00
2023-01-28T13:16:43.093Z,26.65
2023-01-28T13:19:18.777Z,26.10
2023-01-28T13:21:49.363Z,29.35
2023-01-28T13:24:16.431Z,30.13
2023-01-28T13:27:10.849Z,27.02
2023-01-28T13:29:37.595Z,27.30
2023-01-28T13:32:29.439Z,27.63
2023-01-28T13:35:06.360Z,30.30
2023-01-28T13:37:38.387Z,28.70
2023-01-28T13:40:09.224Z,29.05
2023-01-28T13:42:36.760Z,30.02
2023-01-28T13:45:15.667Z,30.75
2023-01-28T13:47:48.780Z,31.10
2023-01-28T13:50:24.214Z,37.05
2023-01-28T13:52:59.472Z,34.08
2023-01-28T13:58:35.197Z,37.33
2023-01-28T14:01:29.157Z,36.20
2023-01-28T14:04:07.298Z,35.60
2023-01-28T14:07:18.779Z,35.50
2023-01-28T14:09:55.571Z,32.28
2023-01-28T14:12:43.198Z,34.58
2023-01-28T14:15:38.075Z,33.95
2023-01-28T14:18:15.602Z,35.08
2023-01-28T14:20:45.454Z,36.40
2023-01-28T14:23:22.072Z,35.90
2023-01-28T14:25:51.635Z,34.47
2023-01-28T14:28:42.838Z,36.15
2023-01-28T14:31:32.563Z,40.60
2023-01-28T14:34:25.554Z,34.63
2023-01-28T14:36:56.382Z,34.95
2023-01-28T14:39:29.659Z,33.85
2023-01-28T14:42:03.127Z,35.03
2023-01-28T14:44:35.737Z,34.63
2023-01-28T14:47:17.509Z,35.83
2023-01-28T14:49:54.529Z,30.15
2023-01-28T14:52:36.165Z,34.25
2023-01-28T14:55:28.837Z,33.97
2023-01-28T14:58:03.426Z,34.63
2023-01-28T15:00:33.421Z,34.77
2023-01-28T15:03:01.862Z,35.53
2023-01-28T15:05:29.891Z,35.85
2023-01-28T15:07:57.060Z,31.45
2023-01-28T15:10:38.859Z,31.27
2023-01-28T15:13:15.375Z,32.72
2023-01-28T15:15:47.839Z,30.20
2023-01-28T15:18:19.446Z,26.90
2023-01-28T15:20:47.795Z,32.22
2023-01-28T15:25:49.397Z,29.20
2023-01-28T15:28:25.288Z,37.70
2023-01-28T15:30:52.137Z,31.08
2023-01-28T15:33:22.572Z,34.58
2023-01-28T15:35:51.023Z,34.72
2023-01-28T15:38:18.319Z,37.15
2023-01-28T15:40:49.082Z,36.55
2023-01-28T15:43:31.274Z,35.40
2023-01-28T15:45:59.168Z,34.08
2023-01-28T15:48:29.106Z,31.30
2023-01-28T15:51:24.341Z,32.95
2023-01-28T15:53:55.575Z,36.67
2023-01-28T15:56:28.071Z,32.30
2023-01-28T15:58:56.158Z,31.42
2023-01-28T16:01:23.918Z,34.35
2023-01-28T16:04:05.195Z,32.15
2023-01-28T16:06:36.785Z,32.10
2023-01-28T16:09:33.986Z,33.65
2023-01-28T16:12:13.717Z,34.78
2023-01-28T16:14:54.533Z,32.72
2023-01-28T16:17:28.748Z,33.88
2023-01-28T16:20:02.481Z,36.03
2023-01-28T16:22:33.480Z,38.28
2023-01-28T16:25:00.433Z,38.88
2023-01-28T16:27:33.883Z,41.38
2023-01-28T16:30:01.331Z,45.83
2023-01-28T16:32:30.984Z,47.67
2023-01-28T16:34:57.841Z,46.05
2023-01-28T16:39:58.113Z,46.20
2023-01-28T16:42:27.126Z,41.40
2023-01-28T16:44:53.902Z,46.50
2023-01-28T16:47:20.671Z,47.17
2023-01-28T16:49:47.436Z,42.63
2023-01-28T16:52:14.314Z,47.42
2023-01-28T16:54:43.279Z,47.63
2023-01-28T16:57:16.476Z,41.50
2023-01-28T16:59:43.242Z,42.88
2023-01-28T17:02:13.056Z,43.58
2023-01-28T17:04:39.940Z,45.05
2023-01-28T17:07:07.289Z,41.33
2023-01-28T17:09:34.178Z,41.47
2023-01-28T17:12:02.523Z,43.42
2023-01-28T17:14:29.257Z,45.03
2023-01-28T17:16:55.967Z,45.97
2023-01-28T17:19:23.033Z,43.83
2023-01-28T17:21:49.702Z,48.05
2023-01-28T17:24:16.488Z,50.30
2023-01-28T17:26:43.298Z,47.00
2023-01-28T17:29:10.099Z,48.25
2023-01-28T17:31:37.076Z,45.45
2023-01-28T17:34:07.193Z,47.00
2023-01-28T17:36:34.064Z,43.83
2023-01-28T17:39:00.808Z,47.90
2023-01-28T17:41:27.804Z,46.60
2023-01-28T17:43:55.940Z,44.08
2023-01-28T17:46:24.438Z,52.00
2023-01-28T17:48:51.580Z,47.25
2023-01-28T17:51:18.925Z,53.17
2023-01-28T17:53:50.442Z,46.30
2023-01-28T17:56:19.943Z,49.42
2023-01-28T17:58:51.786Z,51.22
2023-01-28T18:01:18.735Z,47.92
2023-01-28T18:03:45.673Z,46.28
2023-01-28T18:06:12.395Z,47.50
2023-01-28T18:08:39.364Z,49.97
2023-01-28T18:11:10.969Z,42.60
2023-01-28T18:13:42.406Z,47.03
2023-01-28T18:16:15.049Z,44.03
2023-01-28T18:18:42.179Z,49.22
2023-01-28T18:21:53.744Z,47.00
2023-01-28T18:24:26.091Z,48.40
2023-01-28T18:26:55.517Z,51.08
2023-01-28T18:29:24.134Z,49.92
2023-01-28T18:31:54.377Z,48.20
2023-01-28T18:34:25.554Z,52.95
2023-01-28T18:36:52.879Z,47.33
2023-01-28T18:39:20.731Z,56.30
2023-01-28T18:41:47.972Z,49.13
2023-01-28T18:44:16.056Z,46.33
2023-01-28T18:46:42.800Z,49.33
2023-01-28T18:49:10.039Z,46.95
2023-01-28T18:51:36.787Z,43.63
2023-01-28T18:54:05.327Z,50.55
2023-01-28T18:56:33.380Z,46.53
2023-01-28T18:59:02.534Z,43.10
2023-01-28T19:01:30.679Z,47.88
2023-01-28T19:03:59.240Z,45.63
2023-01-28T19:06:28.075Z,44.22
2023-01-28T19:08:57.480Z,50.63
2023-01-28T19:11:25.813Z,46.03
2023-01-28T19:13:53.031Z,48.08
2023-01-28T19:16:20.579Z,54.40
2023-01-28T19:18:59.030Z,51.20
2023-01-28T19:21:27.279Z,53.95
2023-01-28T19:23:56.513Z,49.72
2023-01-28T19:26:24.551Z,53.58
2023-01-28T19:28:51.895Z,45.72
2023-01-28T19:31:20.899Z,45.20
2023-01-28T19:33:49.075Z,50.30
2023-01-28T19:36:16.284Z,50.53
2023-01-28T19:38:43.181Z,50.03
2023-01-28T19:41:10.120Z,50.28
2023-01-28T19:43:36.873Z,50.08
2023-01-28T19:46:05.912Z,47.00
2023-01-28T19:48:33.822Z,47.15
2023-01-28T19:51:07.823Z,49.65
2023-01-28T19:53:36.524Z,46.92
2023-01-28T19:56:06.650Z,49.45
2023-01-28T19:58:38.824Z,49.38
2023-01-28T20:01:23.869Z,47.47
2023-01-28T20:03:54.240Z,50.27
2023-01-28T20:06:23.859Z,47.35
2023-01-28T20:08:56.421Z,49.92
2023-01-28T20:11:23.863Z,54.88
2023-01-28T20:13:51.687Z,52.13
2023-01-28T20:16:24.096Z,46.65
2023-01-28T20:18:56.076Z,48.53
2023-01-28T20:21:23.435Z,50.35
2023-01-28T20:23:52.069Z,50.63
2023-01-28T20:26:21.748Z,60.90
2023-01-28T20:28:49.165Z,50.92
2023-01-28T20:31:16.506Z,51.40
2023-01-28T20:33:43.461Z,53.60
2023-01-28T20:36:12.875Z,55.78
2023-01-28T20:38:42.290Z,52.00
2023-01-28T20:41:11.856Z,53.17
2023-01-28T20:43:40.637Z,56.90
2023-01-28T20:46:19.346Z,52.35
2023-01-28T20:48:46.577Z,53.25
2023-01-28T20:51:19.251Z,55.60
2023-01-28T20:53:46.420Z,57.30
2023-01-28T20:56:14.747Z,57.05
2023-01-28T20:58:42.354Z,58.08
2023-01-28T21:01:26.250Z,58.22
2023-01-28T21:03:53.242Z,56.08
2023-01-28T21:06:20.227Z,49.00
2023-01-28T21:08:47.243Z,55.78
2023-01-28T21:11:14.584Z,53.58
2023-01-28T21:13:41.704Z,56.28
2023-01-28T21:16:09.060Z,56.10
2023-01-28T21:18:36.274Z,51.83
2023-01-28T21:21:09.931Z,58.28
2023-01-28T21:23:36.699Z,59.03
2023-01-28T21:26:05.215Z,55.72
2023-01-28T21:28:32.428Z,54.35
2023-01-28T21:31:10.579Z,52.85
2023-01-28T21:33:38.569Z,47.92
2023-01-28T21:36:12.869Z,57.80
2023-01-28T21:38:40.196Z,53.38
2023-01-28T21:41:08.403Z,58.20
2023-01-28T21:43:35.550Z,54.40
2023-01-28T21:46:02.837Z,55.58
2023-01-28T21:48:30.469Z,51.95
2023-01-28T21:51:23.031Z,55.00
2023-01-28T21:53:49.871Z,53.88
2023-01-28T21:56:16.618Z,52.80
2023-01-28T21:59:01.975Z,55.63
2023-01-28T22:01:28.753Z,54.17
2023-01-28T22:03:55.522Z,57.22
2023-01-28T22:06:22.363Z,52.80
2023-01-28T22:08:49.123Z,51.47
2023-01-28T22:11:15.829Z,53.58
2023-01-28T22:13:43.277Z,53.60
2023-01-28T22:16:10.071Z,44.92
2023-01-28T22:18:36.748Z,50.58
2023-01-28T22:21:06.289Z,51.70
2023-01-28T22:23:33.211Z,59.53
2023-01-28T22:26:01.026Z,46.92
2023-01-28T22:28:29.028Z,50.95
2023-01-28T22:31:04.547Z,53.45
2023-01-28T22:35:57.968Z,44.78
2023-01-28T22:38:24.797Z,53.67
2023-01-28T22:40:51.716Z,47.03
2023-01-28T22:43:18.425Z,50.88
2023-01-28T22:45:45.164Z,50.22
2023-01-28T22:48:12.016Z,55.35
2023-01-28T22:50:38.746Z,51.03
2023-01-28T22:53:05.491Z,50.58
2023-01-28T22:55:32.589Z,50.35
2023-01-28T22:57:59.265Z,57.25
2023-01-28T23:00:28.133Z,50.05
2023-01-28T23:02:55.451Z,49.47
2023-01-28T23:05:22.209Z,49.15
2023-01-28T23:07:48.916Z,50.30
2023-01-28T23:10:16.293Z,48.40
2023-01-28T23:12:44.112Z,56.15
2023-01-28T23:15:29.686Z,50.75
2023-01-28T23:18:15.171Z,58.88
2023-01-28T23:21:00.700Z,47.38
2023-01-28T23:23:46.153Z,53.63
2023-01-28T23:26:12.956Z,53.30
2023-01-28T23:28:39.725Z,46.92
2023-01-28T23:31:06.677Z,50.22
2023-01-28T23:33:33.507Z,52.08
2023-01-28T23:36:00.398Z,51.83
2023-01-28T23:38:27.552Z,50.40
2023-01-28T23:40:55.151Z,48.92
2023-01-28T23:43:22.199Z,47.53
2023-01-28T23:45:48.845Z,49.80
2023-01-28T23:48:15.529Z,54.05
2023-01-28T23:50:42.198Z,52.95
2023-01-28T23:53:13.100Z,56.20
2023-01-28T23:55:42.976Z,46.67
2023-01-28T23:58:09.721Z,48.08
